createdAt,value
2022-08-15T00:02:33.685Z,4.188
2022-08-15T00:07:17.290Z,4.188
2022-08-15T00:12:28.083Z,4.188
2022-08-15T00:17:13.655Z,4.188
2022-08-15T00:22:18.339Z,4.186
2022-08-15T00:27:17.459Z,4.186
2022-08-15T00:33:03.756Z,4.188
2022-08-15T00:37:20.995Z,4.186
2022-08-15T00:42:25.561Z,4.186
2022-08-15T00:47:24.537Z,4.188
2022-08-15T00:52:27.242Z,4.186
2022-08-15T00:57:57.640Z,4.186
2022-08-15T01:02:35.793Z,4.186
2022-08-15T01:07:31.168Z,4.186
2022-08-15T01:12:32.793Z,4.186
2022-08-15T01:17:34.885Z,4.186
2022-08-15T01:22:36.665Z,4.186
2022-08-15T01:27:39.791Z,4.186
2022-08-15T01:32:39.912Z,4.186
2022-08-15T01:37:56.756Z,4.186
2022-08-15T01:42:43.280Z,4.186
2022-08-15T01:47:44.828Z,4.186
2022-08-15T01:53:09.090Z,4.186
2022-08-15T01:57:48.861Z,4.186
2022-08-15T02:02:50.655Z,4.186
2022-08-15T02:08:32.144Z,4.186
2022-08-15T02:13:02.343Z,4.186
2022-08-15T02:17:54.577Z,4.186
2022-08-15T02:22:55.729Z,4.186
2022-08-15T02:27:57.114Z,4.186
2022-08-15T02:32:59.601Z,4.186
2022-08-15T02:37:59.707Z,4.186
2022-08-15T02:43:01.031Z,4.186
2022-08-15T02:48:02.384Z,4.186
2022-08-15T02:53:03.738Z,4.186
2022-08-15T02:58:05.669Z,4.186
2022-08-15T03:03:06.778Z,4.186
2022-08-15T03:08:08.393Z,4.186
2022-08-15T03:13:10.394Z,4.186
2022-08-15T03:18:12.290Z,4.186
2022-08-15T03:23:14.183Z,4.186
2022-08-15T03:28:16.092Z,4.186
2022-08-15T03:33:17.214Z,4.186
2022-08-15T03:38:37.205Z,4.186
2022-08-15T03:43:20.448Z,4.186
2022-08-15T03:48:22.248Z,4.186
2022-08-15T03:53:23.330Z,4.186
2022-08-15T03:58:33.153Z,4.186
2022-08-15T04:03:26.122Z,4.186
2022-08-15T04:13:29.993Z,4.186
2022-08-15T04:18:42.137Z,4.186
2022-08-15T04:38:38.431Z,4.186
2022-08-15T04:43:39.637Z,4.186
2022-08-15T04:48:41.625Z,4.186
2022-08-15T04:58:51.156Z,4.186
2022-08-15T05:03:54.832Z,4.186
2022-08-15T05:08:48.477Z,4.186
2022-08-15T05:13:49.750Z,4.186
2022-08-15T05:18:51.169Z,4.186
2022-08-15T05:23:52.671Z,4.186
2022-08-15T05:28:57.656Z,4.186
2022-08-15T05:33:58.292Z,4.186
2022-08-15T05:38:57.433Z,4.186
2022-08-15T05:44:37.909Z,4.186
2022-08-15T05:49:07.061Z,4.186
2022-08-15T05:54:08.254Z,4.186
2022-08-15T05:59:10.206Z,4.186
2022-08-15T06:04:29.547Z,4.186
2022-08-15T06:09:13.363Z,4.186
2022-08-15T06:14:17.320Z,4.186
2022-08-15T06:19:16.477Z,4.186
2022-08-15T06:24:26.366Z,4.186
2022-08-15T06:29:20.645Z,4.186
2022-08-15T06:34:45.811Z,4.186
2022-08-15T06:39:23.512Z,4.188
2022-08-15T06:44:30.682Z,4.188
2022-08-15T06:49:34.345Z,4.188
2022-08-15T06:54:35.312Z,4.188
2022-08-15T06:59:35.756Z,4.188
2022-08-15T07:04:33.485Z,4.188
2022-08-15T07:09:33.402Z,4.188
2022-08-15T07:14:34.866Z,4.188
2022-08-15T07:19:36.379Z,4.188
2022-08-15T07:24:37.834Z,4.188
2022-08-15T07:29:40.576Z,4.188
2022-08-15T07:34:40.884Z,4.188
2022-08-15T07:39:48.340Z,4.188
2022-08-15T07:44:44.545Z,4.188
2022-08-15T07:49:46.496Z,4.19
2022-08-15T07:54:50.075Z,4.19
2022-08-15T08:04:51.294Z,4.192
2022-08-15T08:09:53.235Z,4.194
2022-08-15T08:14:54.463Z,4.196
2022-08-15T08:19:55.693Z,4.196
2022-08-15T08:24:58.988Z,4.196
2022-08-15T08:29:59.582Z,4.2
2022-08-15T08:35:01.456Z,4.21
2022-08-15T08:40:03.147Z,4.204
2022-08-15T08:45:04.825Z,4.204
2022-08-15T08:50:24.404Z,4.204
2022-08-15T08:55:08.409Z,4.204
2022-08-15T09:00:09.628Z,4.204
2022-08-15T09:05:11.430Z,4.204
2022-08-15T09:10:13.346Z,4.204
2022-08-15T09:15:16.579Z,4.204
2022-08-15T09:20:18.570Z,4.204
2022-08-15T09:25:18.169Z,4.204
2022-08-15T09:30:46.077Z,4.204
2022-08-15T09:35:23.554Z,4.204
2022-08-15T09:40:57.732Z,4.204
2022-08-15T09:45:44.459Z,4.204
2022-08-15T09:50:33.829Z,4.204
2022-08-15T09:55:32.211Z,4.204
2022-08-15T10:00:29.677Z,4.204
2022-08-15T10:05:37.919Z,4.204
2022-08-15T10:10:33.430Z,4.204
2022-08-15T10:15:35.166Z,4.204
2022-08-15T10:20:36.401Z,4.204
2022-08-15T10:25:39.878Z,4.204
2022-08-15T10:30:45.038Z,4.202
2022-08-15T10:35:42.319Z,4.204
2022-08-15T10:40:43.894Z,4.204
2022-08-15T10:45:46.664Z,4.202
2022-08-15T10:50:47.158Z,4.204
2022-08-15T10:55:56.674Z,4.204
2022-08-15T11:00:50.298Z,4.202
2022-08-15T11:05:51.264Z,4.202
2022-08-15T11:10:52.739Z,4.202
2022-08-15T11:15:54.810Z,4.202
2022-08-15T11:20:56.932Z,4.202
2022-08-15T11:25:58.067Z,4.202
2022-08-15T11:30:59.142Z,4.202
2022-08-15T11:36:01.241Z,4.202
2022-08-15T11:41:03.189Z,4.202
2022-08-15T11:46:15.872Z,4.202
2022-08-15T11:51:06.449Z,4.202
2022-08-15T11:56:08.387Z,4.202
2022-08-15T12:01:10.036Z,4.202
2022-08-15T12:06:28.810Z,4.202
2022-08-15T12:11:13.844Z,4.202
2022-08-15T12:16:26.861Z,4.202
2022-08-15T12:21:16.576Z,4.202
2022-08-15T12:26:24.084Z,4.202
2022-08-15T12:31:19.224Z,4.202
2022-08-15T12:37:02.407Z,4.202
2022-08-15T12:42:46.532Z,4.202
2022-08-15T12:46:25.878Z,4.202
2022-08-15T12:51:28.929Z,4.202
2022-08-15T12:56:31.183Z,4.202
2022-08-15T13:01:32.380Z,4.202
2022-08-15T13:06:35.263Z,4.202
2022-08-15T13:11:33.714Z,4.202
2022-08-15T13:16:56.144Z,4.202
2022-08-15T13:21:37.908Z,4.202
2022-08-15T13:26:39.786Z,4.202
2022-08-15T13:31:39.809Z,4.202
2022-08-15T13:36:54.086Z,4.202
2022-08-15T13:41:48.359Z,4.202
2022-08-15T13:46:50.464Z,4.202
2022-08-15T13:52:01.339Z,4.202
2022-08-15T13:56:52.738Z,4.202
2022-08-15T14:01:48.647Z,4.202
2022-08-15T14:06:54.743Z,4.202
2022-08-15T14:11:55.425Z,4.202
2022-08-15T14:16:56.767Z,4.202
2022-08-15T14:21:54.751Z,4.202
2022-08-15T14:27:05.697Z,4.202
2022-08-15T14:31:58.269Z,4.202
2022-08-15T14:37:00.018Z,4.202
2022-08-15T14:42:01.344Z,4.202
2022-08-15T14:47:03.229Z,4.202
2022-08-15T14:52:23.686Z,4.202
2022-08-15T14:57:06.650Z,4.202
2022-08-15T15:02:08.354Z,4.202
2022-08-15T15:07:15.628Z,4.202
2022-08-15T15:12:11.842Z,4.202
2022-08-15T15:17:13.988Z,4.202
2022-08-15T15:22:16.843Z,4.202
2022-08-15T15:27:17.850Z,4.202
2022-08-15T15:32:29.492Z,4.202
2022-08-15T15:37:20.266Z,4.202
2022-08-15T15:42:22.862Z,4.202
2022-08-15T15:47:25.060Z,4.202
2022-08-15T15:52:25.495Z,4.202
2022-08-15T15:58:01.523Z,4.202
2022-08-15T16:02:36.011Z,4.202
2022-08-15T16:07:36.180Z,4.202
2022-08-15T16:12:59.058Z,4.202
2022-08-15T16:17:35.136Z,4.202
2022-08-15T16:22:36.163Z,4.202
2022-08-15T16:27:37.695Z,4.202
2022-08-15T16:32:39.320Z,4.202
2022-08-15T16:37:41.979Z,4.202
2022-08-15T16:42:47.810Z,4.202
2022-08-15T16:47:43.844Z,4.202
2022-08-15T16:52:45.917Z,4.202
2022-08-15T16:57:49.814Z,4.202
2022-08-15T17:03:04.883Z,4.202
2022-08-15T17:07:52.251Z,4.202
2022-08-15T17:12:53.854Z,4.202
2022-08-15T17:17:54.087Z,4.202
2022-08-15T17:22:55.442Z,4.202
2022-08-15T17:27:59.741Z,4.2
2022-08-15T17:33:01.817Z,4.202
2022-08-15T17:38:01.023Z,4.202
2022-08-15T17:43:02.375Z,4.202
2022-08-15T17:48:03.716Z,4.202
2022-08-15T17:53:05.187Z,4.202
2022-08-15T17:58:09.390Z,4.202
2022-08-15T18:03:08.780Z,4.202
2022-08-15T18:08:12.528Z,4.202
2022-08-15T18:13:12.955Z,4.202
2022-08-15T18:18:20.568Z,4.202
2022-08-15T18:23:17.340Z,4.202
2022-08-15T18:28:17.398Z,4.202
2022-08-15T18:33:18.568Z,4.202
2022-08-15T18:38:20.333Z,4.202
2022-08-15T18:43:25.301Z,4.202
2022-08-15T18:48:33.847Z,4.202
2022-08-15T18:53:26.720Z,4.202
2022-08-15T19:13:42.550Z,4.202
2022-08-15T19:18:35.662Z,4.202
2022-08-15T19:28:39.696Z,4.202
2022-08-15T19:33:38.862Z,4.202
2022-08-15T19:38:40.007Z,4.202
2022-08-15T19:58:46.760Z,4.202
2022-08-15T20:08:50.763Z,4.202
2022-08-15T20:18:52.498Z,4.202
2022-08-15T20:23:55.383Z,4.202
2022-08-15T20:33:58.426Z,4.202
2022-08-15T20:39:01.400Z,4.202
2022-08-15T20:44:01.981Z,4.202
2022-08-15T20:49:06.283Z,4.202
2022-08-15T20:54:05.355Z,4.202
2022-08-15T20:59:08.244Z,4.202
2022-08-15T21:04:11.444Z,4.202
2022-08-15T21:09:10.833Z,4.202
2022-08-15T21:14:43.690Z,4.202
2022-08-15T21:19:13.162Z,4.202
2022-08-15T21:24:15.140Z,4.202
2022-08-15T21:29:16.652Z,4.202
2022-08-15T21:34:23.280Z,4.202
2022-08-15T21:39:20.486Z,4.202
2022-08-15T21:44:21.761Z,4.202
2022-08-15T21:49:23.320Z,4.202
2022-08-15T21:54:26.320Z,4.202
2022-08-15T22:00:18.587Z,4.202
2022-08-15T22:14:31.423Z,4.202
2022-08-15T22:19:35.564Z,4.202
2022-08-15T22:24:35.248Z,4.202
2022-08-15T22:24:41.590Z,4.202
2022-08-15T22:29:48.688Z,4.202
2022-08-15T22:34:45.105Z,4.202
2022-08-15T22:39:46.966Z,4.202
2022-08-15T22:44:48.654Z,4.202
2022-08-15T22:49:54.970Z,4.202
2022-08-15T22:54:51.804Z,4.202
2022-08-15T22:59:56.097Z,4.202
2022-08-15T23:04:55.083Z,4.202
2022-08-15T23:09:56.980Z,4.202
2022-08-15T23:14:59.898Z,4.202
2022-08-15T23:20:00.612Z,4.202
2022-08-15T23:25:01.583Z,4.202
2022-08-15T23:30:31.686Z,4.202
2022-08-15T23:35:05.577Z,4.202
2022-08-15T23:40:07.603Z,4.202
2022-08-15T23:45:12.005Z,4.202
2022-08-15T23:50:11.364Z,4.202
2022-08-15T23:55:12.674Z,4.202
